Strona główna
METAR-TAF:

METAR-TAF

Lotnisko :

Port lotniczy Trang

Trang, Tajlandia

Szerokość geograficzna: 07-31N, Długość geograficzna: 099-37E, wysokość: 14 m

Aktualna obserwacja pogody

Raport powstał 22 minut temu, godzina 00:00 UTC
Cisza
Temperatura 25°C
Wilgotność 94%
Ciśnienie 1011 hPa
Widzialność 10 km lub więcej
Mało chmury na wysokości 2000 ft

METAR: VTST 050000Z 00000KT 9999 FEW020 25/24 Q1011 NOSIG

czas: 07:22 (00:22 UTC)

Prognoza

Raport powstał 1 godzina i 22 minut temu, godzina 23:00 UTC
Prognoza ważna od 05 godzina 00 UTC do 05 godzina 24 UTC
Wiatr 8 kt od wschodnio-północny wschód
Widzialność 10 km lub więcej
Mało chmury na wysokości 2000 ft
Stopniowe zmiany
od 05 godzina 14 UTC do 05 godzina 16 UTC
Wiatr kt od północ

TAF: VTST 042300Z 0500/0524 06008KT 9999 FEW020 BECMG 0514/0516 00000KT

Obserwacja i prognoza pogody dla ponad 4000 lotnisk (raport METAR i TAF).

Dostępne stacje oznaczono żółtymi i czerwonymi punktami na mapie.

Najedź kursorem aby zobaczyć nazwę stacji.

Kliknij aby zobaczyć obserwacje i prognozy pogody.

Aby zmienić mapę: kliknij na zielony przycisk z czarnym krzyżykiem, aby powiększyć; na zielony przycisk z myślnikiem, aby pomniejszyć; na zielone strzałki, aby przejść do map sąsiednich.


METAR-TAF: